Time;durP1;ratioP1;P1;durP2;ratioP2;P2;SDS_P1;SDS_P2;PMS_P1;PMS_P2;Temp;Humidity;BMP_temperature;BMP_pressure;BME280_temperature;BME280_humidity;BME280_pressure;Samples;Min_cycle;Max_cycle;Signal;HPM_P1;HPM_P2
2022/05/18 00:00:27;;;;;;;1.27;0.70;;;;;;;21.35;52.00;99332.91;5107341;28;20039;-81
2022/05/18 00:02:57;;;;;;;2.20;1.27;;;;;;;21.36;51.66;99334.59;5107071;28;20085;-80
2022/05/18 00:05:23;;;;;;;24.50;4.55;;;;;;;21.39;51.54;99328.19;5107428;28;20535;-81
2022/05/18 00:07:49;;;;;;;0.77;0.70;;;;;;;21.50;51.03;99360.56;5106182;28;20051;-81
2022/05/18 00:10:15;;;;;;;2.13;1.20;;;;;;;21.53;50.60;99336.22;5107284;28;20187;-80
2022/05/18 00:12:48;;;;;;;1.98;1.42;;;;;;;21.61;50.93;99358.06;5107124;28;20162;-80
2022/05/18 00:15:15;;;;;;;1.75;1.02;;;;;;;21.60;50.70;99334.84;5107764;28;20031;-81
2022/05/18 00:17:41;;;;;;;1.30;1.02;;;;;;;21.35;50.85;99300.72;5107540;28;20039;-81
2022/05/18 00:20:08;;;;;;;1.70;1.17;;;;;;;21.22;50.69;99300.63;5107124;28;20044;-81
2022/05/18 00:22:33;;;;;;;0.82;0.68;;;;;;;21.53;50.31;99332.69;5107191;28;20050;-81
2022/05/18 00:25:02;;;;;;;2.10;1.02;;;;;;;21.75;49.54;99346.41;5107186;28;20536;-82
2022/05/18 00:27:28;;;;;;;1.25;0.98;;;;;;;21.82;49.39;99347.69;5107418;28;20027;-81
2022/05/18 00:29:53;;;;;;;1.25;0.65;;;;;;;21.66;50.11;99325.53;5107801;28;20036;-81
2022/05/18 00:32:18;;;;;;;2.00;1.45;;;;;;;21.54;50.32;99332.56;5110474;28;20510;-81
2022/05/18 00:34:44;;;;;;;1.38;0.98;;;;;;;21.65;50.67;99339.91;5111025;28;20036;-81
2022/05/18 00:37:09;;;;;;;0.60;0.60;;;;;;;21.56;50.53;99327.09;5109710;28;20044;-80
2022/05/18 00:39:35;;;;;;;1.13;0.80;;;;;;;21.43;50.91;99327.03;5111187;28;20809;-80
2022/05/18 00:42:00;;;;;;;1.08;0.95;;;;;;;21.63;50.41;99340.00;5111504;28;20486;-80
2022/05/18 00:44:27;;;;;;;5.90;2.47;;;;;;;21.56;50.63;99317.22;5110928;28;20043;-81
2022/05/18 00:46:52;;;;;;;1.45;0.77;;;;;;;21.41;50.74;99292.25;5111582;28;20513;-81
2022/05/18 00:49:17;;;;;;;1.20;0.80;;;;;;;21.27;50.98;99295.84;5110996;28;20034;-80
2022/05/18 00:51:53;;;;;;;1.77;1.02;;;;;;;21.52;51.05;99321.09;5109875;28;20040;-80
2022/05/18 00:54:31;;;;;;;1.85;1.20;;;;;;;21.30;51.38;99292.09;5111173;28;20023;-81
2022/05/18 00:57:11;;;;;;;0.98;0.88;;;;;;;21.45;51.38;99320.59;5111008;28;20035;-80
2022/05/18 00:59:44;;;;;;;1.95;1.10;;;;;;;21.57;51.11;99315.41;5110401;28;20026;-81
2022/05/18 01:02:10;;;;;;;1.27;1.02;;;;;;;21.58;51.11;99318.00;5110428;28;20474;-81
2022/05/18 01:04:38;;;;;;;1.33;1.05;;;;;;;21.55;51.12;99314.63;5110562;27;20027;-81
2022/05/18 01:07:16;;;;;;;0.60;0.50;;;;;;;21.69;50.78;99329.81;5109978;28;20035;-81
2022/05/18 01:09:45;;;;;;;1.08;0.60;;;;;;;21.61;50.84;99307.06;5110893;28;20188;-81
2022/05/18 01:12:13;;;;;;;2.42;0.85;;;;;;;21.67;50.63;99310.28;5109830;28;20032;-80
2022/05/18 01:14:44;;;;;;;2.42;1.23;;;;;;;21.78;50.79;99330.09;5110226;28;20055;-81
2022/05/18 01:17:12;;;;;;;1.88;1.00;;;;;;;21.86;50.81;99337.63;5109038;28;20410;-81
2022/05/18 01:19:50;;;;;;;2.47;1.30;;;;;;;21.71;51.12;99338.66;5109723;28;20420;-81
2022/05/18 01:22:39;;;;;;;1.40;0.77;;;;;;;21.68;51.60;99341.53;5110341;28;20035;-81
2022/05/18 01:25:28;;;;;;;1.98;1.25;;;;;;;21.84;51.42;99346.75;5108915;28;20090;-81
2022/05/18 01:27:54;;;;;;;1.63;1.08;;;;;;;21.15;52.14;99272.53;5110148;28;20535;-81
2022/05/18 01:30:20;;;;;;;1.67;1.27;;;;;;;21.42;52.80;99322.63;5110376;28;20138;-80
2022/05/18 01:32:48;;;;;;;2.00;1.25;;;;;;;21.64;52.58;99316.72;5110097;28;20165;-81
2022/05/18 01:35:18;;;;;;;1.13;0.85;;;;;;;21.24;52.52;99269.22;5109924;28;20485;-81
2022/05/18 01:37:44;;;;;;;1.58;1.48;;;;;;;21.44;52.97;99320.69;5109834;28;20035;-81
2022/05/18 01:40:31;;;;;;;0.85;0.55;;;;;;;21.54;52.70;99321.00;5109878;28;20031;-81
2022/05/18 01:43:41;;;;;;;1.75;1.15;;;;;;;21.38;52.83;99288.91;5109179;28;20031;-81
2022/05/18 01:46:10;;;;;;;1.15;0.75;;;;;;;21.17;53.36;99270.59;5098589;28;20051;-81
2022/05/18 01:48:40;;;;;;;2.03;1.13;;;;;;;21.39;53.56;99298.69;5110425;28;20060;-81
2022/05/18 01:51:06;;;;;;;1.40;0.80;;;;;;;21.18;53.49;99256.22;5108674;28;20093;-81
2022/05/18 01:53:33;;;;;;;2.50;1.10;;;;;;;21.19;54.33;99268.66;5109988;28;20030;-83
2022/05/18 01:55:59;;;;;;;1.92;1.00;;;;;;;21.08;54.03;99236.31;5109433;28;20493;-83
2022/05/18 01:58:25;;;;;;;1.98;1.15;;;;;;;21.17;54.51;99253.66;5109227;27;20046;-82
2022/05/18 02:00:52;;;;;;;1.98;1.48;;;;;;;21.00;54.04;99247.56;5109854;28;20263;-81
2022/05/18 02:03:19;;;;;;;2.90;1.70;;;;;;;21.15;54.70;99260.91;5109728;28;20058;-82
2022/05/18 02:05:45;;;;;;;1.67;1.25;;;;;;;21.05;55.00;99283.00;5109333;28;20042;-82
2022/05/18 02:08:12;;;;;;;1.23;1.10;;;;;;;21.05;54.78;99274.94;5108900;28;20039;-82
2022/05/18 02:10:38;;;;;;;1.33;0.95;;;;;;;21.11;55.07;99289.75;5109189;28;20042;-81
2022/05/18 02:13:04;;;;;;;1.40;1.17;;;;;;;20.80;55.43;99266.75;5109401;28;20054;-82
2022/05/18 02:15:30;;;;;;;2.00;1.05;;;;;;;20.75;55.68;99264.38;5109375;28;20036;-81
2022/05/18 02:17:56;;;;;;;1.77;1.23;;;;;;;20.91;55.28;99275.84;5108493;28;20044;-81
2022/05/18 02:20:22;;;;;;;1.30;1.08;;;;;;;20.75;54.99;99237.56;5108537;28;20039;-81
2022/05/18 02:22:48;;;;;;;3.05;1.00;;;;;;;20.89;54.68;99250.09;5108841;28;20035;-82
2022/05/18 02:25:14;;;;;;;1.30;0.55;;;;;;;20.90;55.14;99286.66;5107908;28;20047;-81
2022/05/18 02:27:40;;;;;;;1.70;1.27;;;;;;;20.90;55.11;99271.44;5109178;28;20032;-82
2022/05/18 02:30:07;;;;;;;0.85;0.70;;;;;;;20.98;54.49;99249.50;5109186;28;20027;-82
2022/05/18 02:32:33;;;;;;;1.60;0.80;;;;;;;21.22;54.72;99271.13;5108632;28;20040;-81
2022/05/18 02:34:58;;;;;;;1.05;0.80;;;;;;;20.62;55.77;99231.25;5109395;28;20043;-82
2022/05/18 02:37:24;;;;;;;1.25;0.77;;;;;;;20.55;56.05;99253.06;5108529;28;20058;-82
2022/05/18 02:39:49;;;;;;;1.67;0.93;;;;;;;20.38;56.31;99240.72;5108908;28;20417;-81
2022/05/18 02:42:14;;;;;;;2.58;1.10;;;;;;;20.54;56.37;99294.22;5108470;28;20035;-81
2022/05/18 02:44:40;;;;;;;1.10;1.00;;;;;;;20.43;56.92;99277.94;5108898;28;20039;-81
2022/05/18 02:47:06;;;;;;;1.75;1.13;;;;;;;20.34;57.09;99281.19;5108071;28;20122;-82
2022/05/18 02:49:31;;;;;;;0.50;0.50;;;;;;;20.26;57.31;99257.56;5088718;28;20481;-81
2022/05/18 02:51:57;;;;;;;2.20;1.42;;;;;;;20.29;57.21;99284.16;5108585;28;20036;-81
2022/05/18 02:57:09;;;;;;;1.17;1.08;;;;;;;20.08;57.28;99258.69;5108031;28;20603;-82
2022/05/18 02:59:34;;;;;;;1.52;1.23;;;;;;;20.04;57.81;99279.44;5104577;28;20071;-82
2022/05/18 03:02:01;;;;;;;10.82;2.83;;;;;;;20.00;58.42;99286.81;5099724;28;20560;-81
2022/05/18 03:04:29;;;;;;;1.10;0.75;;;;;;;19.82;58.26;99270.03;5107908;28;20042;-84
2022/05/18 03:06:55;;;;;;;1.38;0.90;;;;;;;19.98;57.86;99288.72;5090890;28;20114;-82
2022/05/18 03:09:21;;;;;;;1.27;1.17;;;;;;;19.77;57.66;99266.78;5101703;28;20119;-82
2022/05/18 03:11:48;;;;;;;1.13;0.75;;;;;;;19.95;58.40;99285.38;5107135;28;20114;-81
2022/05/18 03:14:14;;;;;;;1.98;1.35;;;;;;;20.16;57.65;99308.16;5107676;28;20031;-82
2022/05/18 03:16:43;;;;;;;0.90;0.77;;;;;;;20.09;58.47;99312.16;5106690;28;20100;-81
2022/05/18 03:19:09;;;;;;;2.20;1.35;;;;;;;19.97;58.56;99291.47;5107816;28;20031;-81
2022/05/18 03:24:19;;;;;;;2.35;0.98;;;;;;;20.01;58.12;99322.47;5108045;28;20043;-81
2022/05/18 03:26:44;;;;;;;1.13;0.95;;;;;;;19.72;58.10;99279.53;5107455;28;20024;-84
2022/05/18 03:29:10;;;;;;;1.50;0.73;;;;;;;19.95;57.74;99302.28;5107070;28;20844;-81
2022/05/18 03:31:35;;;;;;;1.52;0.88;;;;;;;20.17;57.69;99330.44;5107964;28;20070;-83
2022/05/18 03:34:01;;;;;;;4.72;3.67;;;;;;;20.11;57.49;99307.59;5107220;28;20418;-82
2022/05/18 03:36:27;;;;;;;2.15;1.63;;;;;;;20.39;57.55;99346.94;5107282;28;20027;-82
2022/05/18 03:38:53;;;;;;;1.17;0.98;;;;;;;19.93;58.11;99311.38;5107320;28;20032;-84
2022/05/18 03:41:19;;;;;;;2.55;1.33;;;;;;;19.88;58.65;99326.81;5106636;28;20047;-82
2022/05/18 03:43:45;;;;;;;1.65;1.23;;;;;;;19.72;58.36;99300.94;5107635;28;20040;-81
2022/05/18 03:46:12;;;;;;;2.30;1.52;;;;;;;20.00;58.08;99316.25;5107296;28;20098;-84
2022/05/18 03:48:38;;;;;;;1.63;0.85;;;;;;;20.09;58.53;99324.69;5106858;28;20035;-83
2022/05/18 03:51:07;;;;;;;4.80;1.50;;;;;;;19.96;59.04;99325.41;5107461;28;20035;-82
2022/05/18 03:53:33;;;;;;;2.35;1.30;;;;;;;20.01;59.08;99327.81;5101844;28;20036;-81
2022/05/18 03:55:59;;;;;;;1.98;1.35;;;;;;;20.11;58.54;99346.88;5100430;28;20420;-78
2022/05/18 03:58:26;;;;;;;1.25;1.00;;;;;;;20.42;57.73;99326.25;5107418;28;20043;-80
2022/05/18 04:00:53;;;;;;;2.03;1.52;;;;;;;20.26;58.26;99327.19;5105102;28;20500;-78
2022/05/18 04:03:20;;;;;;;4.65;1.92;;;;;;;20.51;57.74;99350.69;5105984;28;20084;-80
2022/05/18 04:05:50;;;;;;;1.00;0.65;;;;;;;20.72;57.73;99335.09;5106673;28;20065;-80
2022/05/18 04:08:16;;;;;;;2.65;1.50;;;;;;;20.78;57.37;99341.91;5107142;28;20034;-80
2022/05/18 04:10:41;;;;;;;2.83;2.20;;;;;;;20.54;57.61;99329.06;5106718;28;20031;-80
2022/05/18 04:13:11;;;;;;;1.67;1.40;;;;;;;20.70;57.88;99365.66;5102656;28;20088;-81
2022/05/18 04:15:37;;;;;;;2.50;1.67;;;;;;;20.71;57.65;99359.31;5106475;28;20119;-81
2022/05/18 04:18:03;;;;;;;3.75;1.63;;;;;;;20.65;57.73;99357.91;5105934;28;20621;-82
2022/05/18 04:20:29;;;;;;;1.73;1.08;;;;;;;20.54;57.77;99328.19;5106136;28;20042;-82
2022/05/18 04:22:54;;;;;;;2.20;1.20;;;;;;;20.54;58.27;99373.72;5107515;28;20031;-82
2022/05/18 04:25:23;;;;;;;1.58;1.48;;;;;;;20.43;57.32;99339.56;5107484;28;20504;-82
2022/05/18 04:27:48;;;;;;;1.60;1.27;;;;;;;20.67;57.83;99381.91;5105002;28;20734;-82
2022/05/18 04:30:16;;;;;;;2.13;1.45;;;;;;;20.52;57.44;99351.53;5106997;28;20020;-82
2022/05/18 04:32:41;;;;;;;2.15;1.25;;;;;;;20.64;57.52;99352.59;5104949;28;20042;-81
2022/05/18 04:35:09;;;;;;;1.70;1.17;;;;;;;20.55;57.07;99365.59;5105020;28;20028;-83
2022/05/18 04:37:37;;;;;;;0.68;0.68;;;;;;;20.55;57.11;99375.47;5094083;28;20039;-82
2022/05/18 04:40:05;;;;;;;2.00;1.50;;;;;;;20.56;56.50;99340.53;5104709;28;20074;-81
2022/05/18 04:42:30;;;;;;;0.73;0.60;;;;;;;20.88;56.00;99371.66;5102788;28;20530;-81
2022/05/18 04:44:56;;;;;;;4.13;1.13;;;;;;;20.91;55.71;99393.78;5091564;28;20073;-81
2022/05/18 04:47:23;;;;;;;1.67;1.40;;;;;;;21.13;55.55;99395.09;5103369;28;20497;-81
2022/05/18 04:49:52;;;;;;;1.80;0.95;;;;;;;20.83;55.35;99358.53;5105863;28;20126;-81
2022/05/18 04:52:18;;;;;;;1.27;1.13;;;;;;;21.07;54.81;99377.59;5107171;28;20023;-83
2022/05/18 04:54:44;;;;;;;1.80;0.93;;;;;;;21.05;55.04;99365.22;5106018;28;20036;-82
2022/05/18 04:57:09;;;;;;;1.38;1.20;;;;;;;21.25;53.69;99361.28;5107014;28;20080;-82
2022/05/18 04:59:35;;;;;;;1.42;0.68;;;;;;;21.14;54.00;99363.78;5102726;28;20565;-82
2022/05/18 05:02:02;;;;;;;0.75;0.73;;;;;;;21.20;54.34;99401.81;5101949;28;20040;-82
2022/05/18 05:04:28;;;;;;;1.40;1.30;;;;;;;21.10;53.94;99388.13;5105468;28;20020;-81
2022/05/18 05:06:53;;;;;;;3.05;1.77;;;;;;;21.01;54.68;99345.81;5105688;28;20046;-81
2022/05/18 05:09:22;;;;;;;1.23;0.70;;;;;;;21.25;54.52;99413.09;5106576;28;20133;-81
2022/05/18 05:11:48;;;;;;;7.53;2.67;;;;;;;21.38;54.39;99402.44;5105598;28;20035;-81
2022/05/18 05:14:14;;;;;;;1.20;1.02;;;;;;;21.41;54.27;99375.44;5106350;28;20520;-82
2022/05/18 05:16:39;;;;;;;1.67;1.00;;;;;;;21.90;53.47;99398.19;5106837;28;20031;-80
2022/05/18 05:19:05;;;;;;;0.82;0.80;;;;;;;21.86;52.28;99379.69;5110463;28;20042;-80
2022/05/18 05:21:31;;;;;;;4.63;2.55;;;;;;;21.66;52.72;99398.00;5110267;28;20035;-81
2022/05/18 05:23:56;;;;;;;2.50;2.13;;;;;;;21.87;52.88;99405.59;5108527;28;20043;-81
2022/05/18 05:26:22;;;;;;;1.30;1.15;;;;;;;21.80;52.49;99376.47;5110287;28;20036;-80
2022/05/18 05:28:47;;;;;;;1.25;1.15;;;;;;;22.04;53.09;99397.25;5109975;28;20050;-81
2022/05/18 05:31:13;;;;;;;1.77;0.98;;;;;;;22.03;52.40;99394.69;5107144;28;20503;-82
2022/05/18 05:33:40;;;;;;;3.92;1.88;;;;;;;21.72;52.59;99364.50;5109521;28;20035;-82
2022/05/18 05:36:07;;;;;;;1.70;0.93;;;;;;;21.64;52.13;99381.13;5110064;27;20031;-83
2022/05/18 05:38:32;;;;;;;3.92;2.03;;;;;;;21.70;52.00;99398.66;5109675;28;20066;-83
2022/05/18 05:41:00;;;;;;;0.43;0.40;;;;;;;21.37;53.25;99391.81;5109705;28;20783;-83
2022/05/18 05:43:26;;;;;;;1.65;1.23;;;;;;;21.39;52.34;99360.38;5108372;28;20092;-83
2022/05/18 05:45:59;;;;;;;1.20;0.63;;;;;;;22.05;52.66;99403.50;5108511;28;20051;-84
2022/05/18 05:48:26;;;;;;;1.35;1.02;;;;;;;22.43;52.52;99422.44;5109966;28;20059;-83
2022/05/18 05:50:52;;;;;;;2.38;1.23;;;;;;;22.41;51.17;99405.53;5099990;28;20040;-83
2022/05/18 05:53:17;;;;;;;1.13;0.60;;;;;;;22.77;50.35;99398.59;5090067;28;20042;-84
2022/05/18 05:55:42;;;;;;;1.17;0.70;;;;;;;23.10;49.66;99370.28;5089531;28;20730;-83
2022/05/18 05:58:08;;;;;;;2.80;1.42;;;;;;;24.04;48.94;99425.31;5103368;28;20196;-83
2022/05/18 06:00:34;;;;;;;2.20;1.63;;;;;;;23.28;48.45;99373.47;5109425;28;20027;-83
2022/05/18 06:02:59;;;;;;;3.58;0.80;;;;;;;23.41;48.94;99419.19;5109628;28;20024;-82
2022/05/18 06:05:24;;;;;;;5.45;1.77;;;;;;;23.23;48.83;99389.06;5109809;28;20036;-82
2022/05/18 06:07:50;;;;;;;1.70;1.25;;;;;;;23.54;49.03;99397.59;5109600;28;20088;-83
2022/05/18 06:10:15;;;;;;;0.90;0.63;;;;;;;23.88;48.42;99422.94;5109356;28;20076;-83
2022/05/18 06:12:41;;;;;;;4.03;2.55;;;;;;;23.36;48.77;99413.28;5108305;28;20044;-83
2022/05/18 06:15:08;;;;;;;2.22;1.10;;;;;;;23.17;49.04;99408.34;5109672;28;20051;-82
2022/05/18 06:17:34;;;;;;;3.03;1.48;;;;;;;22.95;49.76;99411.69;5109094;28;20493;-83
2022/05/18 06:19:59;;;;;;;3.28;2.10;;;;;;;22.64;50.19;99392.34;5109559;28;20035;-83
2022/05/18 06:22:26;;;;;;;1.83;0.70;;;;;;;22.63;50.85;99420.19;5109430;27;20036;-82
2022/05/18 06:24:52;;;;;;;1.85;1.42;;;;;;;22.31;51.17;99399.09;5109477;28;20039;-83
2022/05/18 06:27:19;;;;;;;1.33;1.02;;;;;;;22.96;50.43;99391.91;5109669;28;20038;-83
2022/05/18 06:29:45;;;;;;;1.58;0.88;;;;;;;23.47;48.44;99397.19;5108853;28;20028;-83
2022/05/18 06:32:11;;;;;;;1.67;1.33;;;;;;;23.48;48.46;99417.78;5109299;28;20512;-83
2022/05/18 06:34:36;;;;;;;2.05;1.40;;;;;;;23.05;49.76;99405.56;5108987;28;20020;-82
2022/05/18 06:37:05;;;;;;;1.95;1.30;;;;;;;23.09;49.82;99410.75;5109061;28;20458;-82
2022/05/18 06:39:30;;;;;;;1.73;1.45;;;;;;;22.65;49.89;99404.81;5109358;28;20028;-83
2022/05/18 06:41:58;;;;;;;1.88;1.17;;;;;;;22.70;50.35;99419.66;5109287;28;20547;-83
2022/05/18 06:44:24;;;;;;;2.58;1.30;;;;;;;22.73;50.61;99436.56;5108842;28;20051;-83
2022/05/18 06:46:50;;;;;;;2.15;1.25;;;;;;;22.86;51.14;99440.09;5108687;28;20516;-83
2022/05/18 06:49:16;;;;;;;1.63;1.10;;;;;;;23.59;48.82;99419.69;5108602;28;20420;-83
2022/05/18 06:51:43;;;;;;;3.88;1.58;;;;;;;23.93;48.81;99438.75;5108593;28;20031;-82
2022/05/18 06:54:10;;;;;;;2.25;1.40;;;;;;;23.62;48.67;99383.56;5108926;27;20042;-82
2022/05/18 06:56:41;;;;;;;3.67;2.35;;;;;;;23.45;49.26;99414.44;5108363;27;20088;-83
2022/05/18 06:59:08;;;;;;;1.63;1.27;;;;;;;24.12;47.90;99409.44;5107841;28;20043;-83
2022/05/18 07:01:34;;;;;;;1.67;1.42;;;;;;;24.59;45.21;99422.97;5107613;28;20471;-83
2022/05/18 07:03:59;;;;;;;2.15;1.48;;;;;;;24.60;45.74;99442.72;5108026;28;20027;-84
2022/05/18 07:06:29;;;;;;;0.68;0.63;;;;;;;23.81;46.86;99427.03;5107211;28;20035;-83
2022/05/18 07:08:55;;;;;;;0.80;0.75;;;;;;;23.38;48.04;99409.50;5108141;28;20036;-84
2022/05/18 07:11:22;;;;;;;2.38;1.23;;;;;;;23.44;48.56;99431.56;5108238;28;20034;-83
2022/05/18 07:13:51;;;;;;;4.88;2.05;;;;;;;23.81;48.30;99453.09;5107524;28;20023;-83
2022/05/18 07:16:18;;;;;;;2.30;1.77;;;;;;;23.89;47.44;99443.50;5108193;28;20034;-84
2022/05/18 07:18:45;;;;;;;1.15;0.93;;;;;;;23.93;47.41;99447.69;5107598;28;20039;-83
2022/05/18 07:21:11;;;;;;;3.22;1.40;;;;;;;24.23;47.15;99454.44;5107178;28;20031;-83
2022/05/18 07:23:37;;;;;;;1.67;1.02;;;;;;;24.26;46.87;99438.03;5107495;28;20035;-83
2022/05/18 07:26:03;;;;;;;2.60;1.35;;;;;;;24.74;47.14;99434.38;5107412;27;20417;-83
2022/05/18 07:28:28;;;;;;;1.75;1.20;;;;;;;24.44;45.89;99478.91;5107506;28;20031;-83
2022/05/18 07:30:54;;;;;;;3.72;1.10;;;;;;;24.10;46.77;99476.06;5108234;28;20573;-83
2022/05/18 07:33:21;;;;;;;1.42;1.05;;;;;;;24.05;47.30;99471.97;5106829;28;20035;-83
2022/05/18 07:35:49;;;;;;;1.15;0.70;;;;;;;24.04;47.00;99476.50;5107895;28;20035;-83
2022/05/18 07:38:14;;;;;;;3.65;1.42;;;;;;;23.88;48.01;99430.13;5107095;28;20043;-84
2022/05/18 07:40:40;;;;;;;2.70;1.60;;;;;;;23.91;47.54;99438.00;5106232;28;20147;-85
2022/05/18 07:43:06;;;;;;;3.22;1.15;;;;;;;24.21;47.12;99456.38;5107989;28;20130;-83
2022/05/18 07:45:34;;;;;;;2.13;1.30;;;;;;;23.84;47.62;99447.47;5107350;28;20074;-83
2022/05/18 07:47:59;;;;;;;2.78;1.75;;;;;;;23.90;48.29;99488.31;5106244;28;20031;-84
2022/05/18 07:50:25;;;;;;;1.75;1.10;;;;;;;23.92;47.91;99502.50;5107840;28;20034;-84
2022/05/18 07:52:52;;;;;;;1.85;1.35;;;;;;;24.22;48.09;99492.28;5107062;28;20451;-84
2022/05/18 07:55:18;;;;;;;5.75;2.25;;;;;;;24.07;47.00;99464.66;5107710;28;20413;-84
2022/05/18 07:57:44;;;;;;;2.20;0.90;;;;;;;24.46;47.01;99490.41;5107188;28;20035;-83
2022/05/18 08:00:12;;;;;;;3.00;1.65;;;;;;;24.91;46.80;99484.31;5107089;27;20477;-85
2022/05/18 08:02:38;;;;;;;2.40;0.93;;;;;;;25.68;44.85;99509.78;5106761;28;20039;-84
2022/05/18 08:05:05;;;;;;;2.70;1.23;;;;;;;25.76;45.96;99510.03;5107671;28;20093;-84
2022/05/18 08:07:31;;;;;;;1.90;1.25;;;;;;;25.40;45.13;99476.91;5106714;28;20114;-85
2022/05/18 08:15:25;;;;;;;2.00;1.38;;;;;;;24.79;46.54;99521.22;5106847;28;20043;-84
2022/05/18 08:17:50;;;;;;;3.30;1.70;;;;;;;25.00;46.46;99474.66;5107172;28;20031;-84
2022/05/18 08:20:19;;;;;;;1.42;1.00;;;;;;;25.18;46.01;99537.97;5106441;28;20531;-85
2022/05/18 08:22:45;;;;;;;3.88;2.70;;;;;;;24.99;45.62;99499.91;5107182;28;20504;-84
2022/05/18 08:25:11;;;;;;;2.30;1.63;;;;;;;25.18;45.90;99527.19;5106811;28;20043;-85
2022/05/18 08:27:42;;;;;;;2.90;1.77;;;;;;;25.29;46.88;99498.53;5106981;28;20028;-84
2022/05/18 08:30:11;;;;;;;4.55;2.08;;;;;;;24.83;46.45;99501.09;5106277;28;20409;-84
2022/05/18 08:32:36;;;;;;;2.58;1.63;;;;;;;24.43;46.62;99501.44;5106251;28;20074;-84
2022/05/18 08:35:03;;;;;;;5.65;1.45;;;;;;;25.00;47.41;99545.66;5107143;28;20490;-84
2022/05/18 08:37:29;;;;;;;1.63;0.95;;;;;;;24.40;46.73;99520.53;5105157;28;20046;-84
2022/05/18 08:39:54;;;;;;;2.78;1.40;;;;;;;24.26;47.97;99534.19;5103374;28;20494;-86
2022/05/18 08:42:20;;;;;;;2.22;1.55;;;;;;;23.97;47.60;99496.78;5099941;28;20811;-84
2022/05/18 08:44:46;;;;;;;6.47;3.13;;;;;;;23.64;49.73;99530.56;5107021;28;20047;-82
2022/05/18 08:47:27;;;;;;;2.30;1.55;;;;;;;23.57;50.38;99558.91;5106297;28;20038;-84
2022/05/18 08:50:05;;;;;;;2.65;1.42;;;;;;;23.20;51.72;99545.34;5106679;28;20680;-83
2022/05/18 08:52:54;;;;;;;2.78;1.27;;;;;;;23.09;53.01;99554.16;5108062;28;20084;-83
2022/05/18 08:55:20;;;;;;;1.35;0.80;;;;;;;23.12;54.07;99555.78;5080664;28;20040;-83
2022/05/18 08:57:48;;;;;;;3.47;1.30;;;;;;;23.02;53.43;99559.06;5110908;28;20084;-83
2022/05/18 09:00:24;;;;;;;2.42;1.38;;;;;;;22.81;52.70;99547.09;5110823;28;20492;-83
2022/05/18 09:02:59;;;;;;;3.10;1.77;;;;;;;22.86;52.46;99580.78;5110754;28;20030;-83
2022/05/18 09:05:46;;;;;;;2.22;1.25;;;;;;;22.86;53.59;99580.78;5109247;28;20039;-83
2022/05/18 09:08:29;;;;;;;1.90;1.23;;;;;;;22.91;53.56;99567.03;5110782;28;20501;-84
2022/05/18 09:11:14;;;;;;;1.55;1.13;;;;;;;22.51;53.87;99545.53;5110810;28;20038;-84
2022/05/18 09:13:40;;;;;;;1.83;1.27;;;;;;;22.46;55.37;99551.22;5109977;28;20081;-82
2022/05/18 09:16:27;;;;;;;3.17;1.70;;;;;;;22.24;56.25;99557.09;5110394;28;20525;-85
2022/05/18 09:19:21;;;;;;;3.92;1.60;;;;;;;22.16;57.37;99583.59;5110911;28;20074;-84
2022/05/18 09:21:58;;;;;;;2.72;1.98;;;;;;;22.11;58.41;99589.28;5110489;28;20480;-84
2022/05/18 09:24:33;;;;;;;4.03;1.70;;;;;;;21.97;59.54;99592.84;5110788;28;20084;-84
2022/05/18 09:27:07;;;;;;;2.85;2.17;;;;;;;21.98;60.20;99582.97;5110439;28;20114;-84
2022/05/18 09:29:50;;;;;;;3.05;1.67;;;;;;;21.34;61.80;99558.34;5110539;28;20043;-83
2022/05/18 09:32:18;;;;;;;3.72;1.83;;;;;;;21.20;65.04;99594.91;5109241;28;20050;-83
2022/05/18 09:34:59;;;;;;;3.83;2.53;;;;;;;21.02;65.62;99585.28;5109754;28;20114;-83
2022/05/18 09:37:24;;;;;;;3.70;1.90;;;;;;;20.93;67.13;99584.91;5110452;27;20024;-83
2022/05/18 09:40:16;;;;;;;1.73;1.48;;;;;;;20.57;67.06;99551.25;5110125;28;20039;-82
2022/05/18 09:42:54;;;;;;;2.50;1.52;;;;;;;20.34;68.12;99549.03;5105237;28;20031;-83
2022/05/18 09:45:25;;;;;;;2.45;1.73;;;;;;;20.34;67.17;99566.00;5109845;28;20130;-83
2022/05/18 09:48:12;;;;;;;1.80;1.40;;;;;;;20.37;67.99;99595.28;5109125;28;20509;-83
2022/05/18 09:50:41;;;;;;;2.92;1.35;;;;;;;20.08;67.93;99559.44;5108799;28;20067;-83
2022/05/18 09:53:07;;;;;;;1.92;1.17;;;;;;;20.19;69.10;99582.94;5110080;28;20023;-83
2022/05/18 09:55:33;;;;;;;2.55;0.98;;;;;;;20.11;68.78;99596.75;5108759;27;20428;-83
2022/05/18 09:58:11;;;;;;;0.88;0.75;;;;;;;20.13;68.25;99594.00;5110052;28;20140;-84
2022/05/18 10:00:37;;;;;;;2.20;1.25;;;;;;;19.99;68.49;99560.81;5107929;28;20527;-84
2022/05/18 10:08:56;;;;;;;1.83;1.45;;;;;;;20.24;65.19;99556.75;5109715;28;20050;-84
2022/05/18 10:11:29;;;;;;;0.98;0.70;;;;;;;20.23;64.08;99567.53;5109689;28;20038;-84
2022/05/18 10:14:15;;;;;;;2.75;1.35;;;;;;;20.31;64.74;99542.06;5109249;28;20102;-84
2022/05/18 10:16:47;;;;;;;1.65;1.02;;;;;;;20.56;64.45;99570.97;5108330;28;20023;-83
2022/05/18 10:19:34;;;;;;;2.05;1.17;;;;;;;20.61;63.52;99576.03;5109207;28;20090;-82
2022/05/18 10:22:07;;;;;;;1.52;1.00;;;;;;;20.62;62.21;99567.06;5109303;28;20568;-83
2022/05/18 10:24:44;;;;;;;1.98;1.15;;;;;;;20.62;61.47;99568.84;5109026;28;20063;-83
2022/05/18 10:27:21;;;;;;;2.28;1.48;;;;;;;20.77;61.28;99553.75;5109161;28;20413;-83
2022/05/18 10:30:10;;;;;;;0.68;0.68;;;;;;;21.09;61.41;99584.81;5109340;28;20035;-83
2022/05/18 10:32:54;;;;;;;1.40;0.80;;;;;;;21.33;60.30;99591.47;5108949;28;20024;-83
2022/05/18 10:35:47;;;;;;;1.57;0.97;;;;;;;21.52;59.15;99596.59;5109684;28;20070;-82
2022/05/18 10:38:23;;;;;;;1.63;1.13;;;;;;;21.62;58.89;99593.25;5108777;28;20493;-83
2022/05/18 10:40:52;;;;;;;0.88;0.68;;;;;;;21.67;57.87;99584.06;5108742;28;20038;-84
2022/05/18 10:44:02;;;;;;;0.93;0.70;;;;;;;22.04;57.67;99598.69;5109278;27;20062;-84
2022/05/18 10:46:37;;;;;;;1.40;1.08;;;;;;;22.25;56.04;99582.16;5059860;28;20055;-83
2022/05/18 10:49:08;;;;;;;1.70;0.75;;;;;;;22.13;55.32;99544.38;5108604;28;20461;-83
2022/05/18 10:51:41;;;;;;;2.58;0.90;;;;;;;22.32;55.19;99592.44;5108684;28;20035;-82
2022/05/18 10:54:36;;;;;;;1.13;0.68;;;;;;;22.22;55.23;99559.03;5108846;28;20112;-83
2022/05/18 10:57:14;;;;;;;1.42;0.70;;;;;;;22.34;53.45;99544.81;5095363;28;20048;-84
2022/05/18 10:59:49;;;;;;;2.55;0.77;;;;;;;22.68;54.13;99592.78;5108636;28;20034;-84
2022/05/18 11:02:36;;;;;;;0.52;0.52;;;;;;;23.01;52.27;99589.63;5107910;28;20038;-83
2022/05/18 11:05:32;;;;;;;1.23;1.02;;;;;;;23.47;52.23;99592.84;5108565;28;20564;-83
2022/05/18 11:07:58;;;;;;;0.90;0.80;;;;;;;22.95;51.57;99543.47;5107767;28;20035;-83
2022/05/18 11:10:35;;;;;;;1.83;1.00;;;;;;;23.32;51.09;99590.22;5107667;28;20843;-82
2022/05/18 11:13:33;;;;;;;1.13;0.82;;;;;;;23.22;50.82;99575.72;5108612;28;20031;-82
2022/05/18 11:15:58;;;;;;;0.88;0.47;;;;;;;23.35;50.26;99581.94;5075352;28;20130;-83
2022/05/18 11:18:35;;;;;;;0.55;0.50;;;;;;;23.43;49.73;99589.47;5107872;28;20251;-83
2022/05/18 11:21:07;;;;;;;0.90;0.77;;;;;;;23.07;49.50;99534.56;5108404;28;20031;-84
2022/05/18 11:23:47;;;;;;;1.25;0.95;;;;;;;23.19;49.10;99584.00;5107414;28;20922;-84
2022/05/18 11:26:34;;;;;;;1.48;1.23;;;;;;;23.38;50.13;99559.34;5108061;28;20035;-82
2022/05/18 11:29:14;;;;;;;1.35;0.93;;;;;;;23.50;48.62;99576.47;5108421;28;20595;-83
2022/05/18 11:32:03;;;;;;;1.00;0.90;;;;;;;23.44;50.17;99552.69;5107628;28;20031;-82
2022/05/18 11:35:06;;;;;;;0.82;0.68;;;;;;;23.70;49.20;99575.06;5107078;28;20031;-83
2022/05/18 11:37:49;;;;;;;1.85;1.02;;;;;;;23.47;49.04;99588.31;5107527;28;20042;-82
2022/05/18 11:40:24;;;;;;;1.75;0.85;;;;;;;23.60;48.16;99594.56;5090331;28;20417;-83
2022/05/18 11:42:52;;;;;;;0.75;0.70;;;;;;;23.57;47.93;99601.97;5103689;28;20038;-83
2022/05/18 11:45:42;;;;;;;1.10;1.00;;;;;;;23.81;48.37;99599.38;5107187;28;20579;-82
2022/05/18 11:48:46;;;;;;;1.42;0.65;;;;;;;23.87;47.54;99590.88;5107635;28;20106;-83
2022/05/18 11:51:26;;;;;;;1.23;0.95;;;;;;;23.91;47.17;99622.03;5106097;28;20043;-83
2022/05/18 11:54:01;;;;;;;1.85;0.95;;;;;;;23.74;47.38;99631.28;5107243;28;20032;-83
2022/05/18 11:56:50;;;;;;;2.00;1.08;;;;;;;23.41;47.98;99603.03;5105904;28;20534;-84
2022/05/18 12:02:10;;;;;;;0.82;0.63;;;;;;;23.37;49.09;99636.53;5106258;28;20051;-83
2022/05/18 12:05:16;;;;;;;1.52;1.15;;;;;;;23.50;48.68;99650.00;5107745;28;20027;-82
2022/05/18 12:08:27;;;;;;;3.13;1.00;;;;;;;23.30;49.20;99623.63;5107705;28;20024;-82